MST,Max TemperatureF,Mean TemperatureF,Min TemperatureF,Max Dew PointF,MeanDew PointF,Min DewpointF,Max Humidity, Mean Humidity, Min Humidity, Max Sea Level PressureIn, Mean Sea Level PressureIn, Min Sea Level PressureIn, Max VisibilityMiles, Mean VisibilityMiles, Min VisibilityMiles, Max Wind SpeedMPH, Mean Wind SpeedMPH, Max Gust SpeedMPH,PrecipitationIn, CloudCover, Events, WindDirDegrees
2012-11-1,71,51,31,38,32,28,85,54,23,30.05,29.95,29.81,10,10,10,22,10,28,0.00,0,,246
2012-11-2,61,46,30,36,30,27,89,59,29,30.18,29.98,29.81,10,10,9,29,12,36,0.00,0,,321
2012-11-3,64,44,24,36,27,22,92,56,19,30.27,30.18,30.09,10,10,10,17,7,22,0.00,0,,288
2012-11-4,65,46,27,35,27,22,82,52,21,30.23,30.15,30.09,10,10,10,28,14,31,0.00,1,,309
2012-11-5,64,49,33,36,32,30,89,60,30,30.24,30.14,30.04,10,10,10,16,10,20,0.00,2,,292
2012-11-6,64,47,30,35,30,27,85,58,30,30.27,30.18,30.07,10,10,10,17,8,22,0.00,0,,306
2012-11-7,74,52,30,35,28,24,92,54,16,30.12,29.96,29.82,10,10,10,24,11,28,0.00,0,,245
2012-11-8,58,45,31,33,29,23,82,61,39,30.02,29.90,29.82,10,10,10,22,11,26,0.00,0,,47
2012-11-9,54,42,29,35,32,28,96,73,50,29.83,29.70,29.54,10,5,0,17,10,21,0.00,4,Fog,123
2012-11-10,36,27,17,34,27,11,100,86,71,29.94,29.66,29.49,10,3,0,30,15,38,0.04,8,Fog-Snow,360
2012-11-11,26,14,2,13,8,1,96,78,60,30.37,30.19,29.96,10,10,10,25,7,30,0.00,1,,306
2012-11-12,39,21,2,23,13,2,83,65,47,30.48,30.40,30.34,10,10,10,16,10,20,0.00,0,,258
2012-11-13,50,35,19,28,23,14,88,62,36,30.36,30.30,30.23,10,10,10,28,9,33,0.00,2,,290
2012-11-14,51,35,19,34,25,17,88,64,39,30.34,30.24,30.14,10,10,10,24,9,29,0.00,1,,243
2012-11-15,51,37,23,34,25,19,82,57,32,30.45,30.37,30.19,10,10,10,16,8,20,0.00,1,,322
2012-11-16,57,41,24,28,25,21,81,56,30,30.34,30.19,30.05,10,10,10,26,14,33,0.00,0,,196
2012-11-17,65,48,30,33,29,24,78,53,28,30.12,30.06,30.01,10,10,10,15,7,18,0.00,0,,294
2012-11-18,68,47,26,32,26,23,85,53,20,30.05,29.97,29.86,10,10,10,21,9,25,0.00,0,,274
2012-11-19,66,46,26,32,26,21,72,46,19,30.24,30.16,30.02,10,10,10,26,12,36,0.00,0,,280
2012-11-20,69,47,24,29,23,21,81,49,17,30.25,30.14,30.00,10,10,10,21,11,24,0.00,0,,231
2012-11-21,72,51,30,26,22,19,69,42,14,30.05,29.90,29.79,10,10,10,15,9,17,0.00,0,,257
2012-11-22,50,37,23,30,17,10,70,46,21,30.51,30.17,29.78,10,10,10,36,17,43,0.00,0,,331
2012-11-23,47,32,16,17,14,10,74,50,26,30.63,30.47,30.22,10,10,10,16,10,21,0.00,0,,258
2012-11-24,70,45,20,20,16,14,71,42,12,30.19,30.00,29.88,10,10,10,32,12,43,0.00,0,,293
2012-11-25,54,38,22,28,24,14,81,60,38,30.09,29.95,29.83,10,10,10,24,11,30,0.00,1,,150
2012-11-26,32,25,18,25,21,15,92,78,63,30.47,30.30,30.10,10,10,4,15,8,18,0.00,6,,87
2012-11-27,60,37,13,28,15,8,88,50,12,30.35,30.24,30.10,10,10,9,22,7,26,0.00,0,,267
2012-11-28,62,39,15,20,14,10,80,47,14,30.30,30.17,30.05,10,10,10,18,10,22,0.00,0,,237
2012-11-29,68,45,22,23,16,10,69,43,17,30.10,30.01,29.90,10,10,10,31,10,39,0.00,0,,286
2012-11-30,61,43,24,26,21,17,75,48,20,30.11,29.96,29.79,10,10,10,21,9,25,0.00,0,,225